Bettendorf, IA

9:56 PM CDT on August 28, 2016 (GMT -0500)
Central Bettendorf | | Change Station

Elev 665 ft 41.53 °N, 90.50 °W | Updated 4 seconds ago

Clear
Clear
73.4 °F
Feels Like 77 °F
N
4.5
Wind Variable Wind from ENE
Gusts 4.8 mph

Today
High -- | Low -- °F
--% Chance of Precip.
Yesterday
High -- | Low -- °F
Precip. -- in
Pressure 30.15 in
Visibility 10.0 miles
Clouds Clear
Heat Index 77 °F
Dew Point 53 °F
Humidity 49%
Rainfall 0.00 in
Snow Depth Not available.
6:24 AM 7:40 PM
Waning Crescent, 11% visible
METAR KMLI 290252Z 00000KT 10SM CLR 23/21 A3016 RMK AO2 SLP209 60000 T02280206 55000
Pressure 30.15 in
Visibility 10.0 miles
Clouds Clear
Heat Index 77 °F
Dew Point 53 °F
Humidity 49%
Rainfall 0.00 in
Snow Depth Not available.
6:24 AM 7:40 PM
Waning Crescent, 11% visible
METAR KMLI 290252Z 00000KT 10SM CLR 23/21 A3016 RMK AO2 SLP209 60000 T02280206 55000

10-Day Weather Forecast

Almanac

Astronomy

Aug. 28, 2016 Rise Set
Actual Time
Civil Twilight
Nautical Twilight
Astronomical Twilight
Moon
Length of Visible Light
Length of Day
Tomorrow will be .
, % of the Moon is Illuminated

Today's Extremes

State Highs State Lows

Community

WunderPhotos

Upload Photos

1,935,780 photos uploaded!

WunderBlog® & News

Nearby

Air Quality

  Air Quality AQ Index Pollutant
Not available.

Snow Depth

Station Depth Elevation

Earthquake Activity

City Distance Mag. Time & Date
Minimum magnitude displayed is 2.5.

Coastal Water Temperatures

Place Temperature

Stations

Nearby Weather Stations

Station Location Temp. Windchill Dew Point Humidity Wind Precip. Elev Updated Type
                   

Watches & Warnings

There are currently no watches in effect.